Wetterdaten: Woche 10.08.09 - 16.08.09 (KW33)
Datum Zeit Temperatur Luftfeuchte Luftdruck Niederschlag Windrichtung Wind
10.08.2009 00:00 17,0 C 85 % 1013,2 hPa 0,0 l/m N-NW 5,1 km/h (1 Bft)
10.08.2009 01:00 16,9 C 85 % 1013,3 hPa 0,0 l/m N-NW 5,5 km/h (1 Bft)
10.08.2009 02:00 16,5 C 88 % 1013,3 hPa 0,0 l/m N-NW 1,6 km/h (1 Bft)
10.08.2009 03:00 16,2 C 89 % 1013,0 hPa 0,0 l/m N 0,8 km/h (0 Bft)
10.08.2009 04:00 15,9 C 90 % 1013,3 hPa 0,0 l/m SW 2,4 km/h (1 Bft)
10.08.2009 05:00 15,9 C 91 % 1013,4 hPa 0,0 l/m SW 2,3 km/h (1 Bft)
10.08.2009 06:00 16,1 C 93 % 1013,4 hPa 0,2 l/m N 1,2 km/h (1 Bft)
10.08.2009 07:00 16,7 C 95 % 1013,7 hPa 0,0 l/m SO 4,5 km/h (1 Bft)
10.08.2009 08:00 17,5 C 95 % 1013,8 hPa 0,0 l/m SW 9,5 km/h (2 Bft)
10.08.2009 09:00 18,0 C 94 % 1014,1 hPa 0,4 l/m SW 8,8 km/h (2 Bft)
10.08.2009 10:00 18,5 C 94 % 1014,5 hPa 0,0 l/m SW 4,4 km/h (1 Bft)
10.08.2009 11:00 20,1 C 86 % 1014,3 hPa 0,0 l/m W-SW 10,6 km/h (2 Bft)
10.08.2009 12:00 21,2 C 79 % 1014,0 hPa 0,0 l/m W-SW 12,8 km/h (3 Bft)
10.08.2009 13:00 19,9 C 86 % 1013,9 hPa 1,8 l/m W-SW 13,8 km/h (3 Bft)
10.08.2009 14:00 20,3 C 88 % 1014,0 hPa 0,0 l/m W-SW 10,2 km/h (2 Bft)
10.08.2009 15:00 22,3 C 77 % 1013,4 hPa 0,0 l/m W-NW 15,2 km/h (3 Bft)
10.08.2009 16:00 21,7 C 74 % 1013,3 hPa 0,0 l/m W-SW 18,0 km/h (3 Bft)
10.08.2009 17:00 20,1 C 81 % 1013,6 hPa 0,0 l/m W-NW 14,5 km/h (3 Bft)
10.08.2009 18:00 18,8 C 88 % 1013,7 hPa 0,2 l/m W 11,4 km/h (2 Bft)
10.08.2009 19:00 18,2 C 91 % 1014,0 hPa 0,4 l/m SW 13,0 km/h (3 Bft)
10.08.2009 20:00 17,8 C 91 % 1014,6 hPa 0,0 l/m W-SW 13,3 km/h (3 Bft)
10.08.2009 21:00 17,2 C 91 % 1015,2 hPa 0,0 l/m SW 11,2 km/h (2 Bft)
10.08.2009 22:00 16,8 C 92 % 1015,6 hPa 0,0 l/m SW 9,0 km/h (2 Bft)
10.08.2009 23:00 16,3 C 93 % 1016,2 hPa 0,0 l/m S 5,7 km/h (1 Bft)
11.08.2009 00:00 16,0 C 96 % 1016,6 hPa 0,0 l/m S 6,1 km/h (2 Bft)
11.08.2009 01:00 16,2 C 97 % 1017,0 hPa 0,0 l/m S-SO 5,9 km/h (2 Bft)
11.08.2009 02:00 16,3 C 97 % 1017,0 hPa 0,0 l/m S-SO 4,7 km/h (1 Bft)
11.08.2009 03:00 16,1 C 96 % 1017,0 hPa 0,0 l/m S 5,3 km/h (1 Bft)
11.08.2009 04:00 15,8 C 97 % 1016,9 hPa 0,0 l/m SW 6,3 km/h (2 Bft)
11.08.2009 05:00 15,9 C 97 % 1017,0 hPa 0,0 l/m S-SW 4,8 km/h (1 Bft)
11.08.2009 06:00 15,9 C 98 % 1017,2 hPa 0,0 l/m SW 5,1 km/h (1 Bft)
11.08.2009 07:00 16,3 C 98 % 1017,5 hPa 0,0 l/m SW 7,4 km/h (2 Bft)
11.08.2009 08:00 17,2 C 96 % 1017,8 hPa 0,0 l/m SW 10,2 km/h (2 Bft)
11.08.2009 09:00 18,8 C 88 % 1017,8 hPa 0,0 l/m W-SW 18,0 km/h (3 Bft)
11.08.2009 10:00 20,6 C 78 % 1017,8 hPa 0,0 l/m W-SW 19,0 km/h (3 Bft)
11.08.2009 11:00 21,9 C 65 % 1017,9 hPa 0,0 l/m W 19,3 km/h (3 Bft)
11.08.2009 12:00 22,7 C 57 % 1017,9 hPa 0,0 l/m W-SW 24,7 km/h (4 Bft)
11.08.2009 13:00 23,4 C 52 % 1017,9 hPa 0,0 l/m W 22,7 km/h (4 Bft)
11.08.2009 14:00 23,8 C 52 % 1017,6 hPa 0,0 l/m W-SW 20,2 km/h (4 Bft)
11.08.2009 15:00 22,6 C 57 % 1017,8 hPa 0,0 l/m W 18,8 km/h (3 Bft)
11.08.2009 16:00 20,3 C 71 % 1018,5 hPa 0,4 l/m W-NW 13,1 km/h (3 Bft)
11.08.2009 17:00 21,2 C 74 % 1018,2 hPa 0,0 l/m W 9,5 km/h (2 Bft)
11.08.2009 18:00 22,0 C 66 % 1018,0 hPa 0,0 l/m W 13,0 km/h (3 Bft)
11.08.2009 19:00 21,0 C 69 % 1018,1 hPa 0,0 l/m W-NW 7,8 km/h (2 Bft)
11.08.2009 20:00 19,5 C 80 % 1018,3 hPa 0,0 l/m NW 2,8 km/h (1 Bft)
11.08.2009 21:00 17,8 C 87 % 1018,6 hPa 0,0 l/m N 0,1 km/h (0 Bft)
11.08.2009 22:00 17,5 C 87 % 1018,9 hPa 0,0 l/m NW 3,2 km/h (1 Bft)
11.08.2009 23:00 17,5 C 85 % 1019,1 hPa 0,0 l/m N-NW 4,3 km/h (1 Bft)
12.08.2009 00:00 17,0 C 87 % 1019,2 hPa 0,0 l/m N 1,7 km/h (1 Bft)
12.08.2009 01:00 17,0 C 87 % 1019,2 hPa 0,0 l/m N 2,1 km/h (1 Bft)
12.08.2009 02:00 16,8 C 88 % 1018,9 hPa 0,0 l/m N 1,3 km/h (1 Bft)
12.08.2009 03:00 16,7 C 89 % 1018,8 hPa 0,0 l/m N 0,0 km/h (0 Bft)
12.08.2009 04:00 16,2 C 90 % 1018,7 hPa 0,0 l/m N 1,1 km/h (0 Bft)
12.08.2009 05:00 15,4 C 91 % 1019,0 hPa 0,0 l/m N 0,3 km/h (0 Bft)
12.08.2009 06:00 15,0 C 93 % 1019,3 hPa 0,0 l/m N 0,0 km/h (0 Bft)
12.08.2009 07:00 15,4 C 95 % 1019,5 hPa 0,0 l/m W 1,1 km/h (0 Bft)
12.08.2009 08:00 17,4 C 88 % 1019,6 hPa 0,0 l/m W-SW 2,7 km/h (1 Bft)
12.08.2009 09:00 19,2 C 78 % 1019,5 hPa 0,0 l/m W 7,0 km/h (2 Bft)
12.08.2009 10:00 21,0 C 66 % 1019,5 hPa 0,0 l/m W 10,7 km/h (2 Bft)
12.08.2009 11:00 22,1 C 57 % 1019,3 hPa 0,0 l/m W-NW 12,0 km/h (2 Bft)
12.08.2009 12:00 23,4 C 51 % 1018,8 hPa 0,0 l/m W-SW 17,6 km/h (3 Bft)
12.08.2009 13:00 23,8 C 50 % 1018,4 hPa 0,0 l/m W-SW 17,7 km/h (3 Bft)
12.08.2009 14:00 23,6 C 52 % 1018,0 hPa 0,0 l/m W-NW 12,9 km/h (3 Bft)
12.08.2009 15:00 25,0 C 48 % 1017,6 hPa 0,0 l/m W 15,2 km/h (3 Bft)
12.08.2009 16:00 24,9 C 49 % 1017,1 hPa 0,0 l/m W 15,6 km/h (3 Bft)
12.08.2009 17:00 24,4 C 52 % 1016,6 hPa 0,0 l/m W-SW 10,7 km/h (2 Bft)
12.08.2009 18:00 23,9 C 54 % 1016,0 hPa 0,0 l/m W 10,5 km/h (2 Bft)
12.08.2009 19:00 22,7 C 60 % 1015,6 hPa 0,0 l/m W-SW 9,0 km/h (2 Bft)
12.08.2009 20:00 20,8 C 68 % 1015,8 hPa 0,0 l/m W 6,7 km/h (2 Bft)
12.08.2009 21:00 19,4 C 75 % 1016,3 hPa 0,0 l/m W-NW 6,0 km/h (2 Bft)
12.08.2009 22:00 17,8 C 79 % 1016,4 hPa 0,0 l/m W-NW 2,8 km/h (1 Bft)
12.08.2009 23:00 16,3 C 85 % 1016,3 hPa 0,0 l/m N 1,2 km/h (1 Bft)
13.08.2009 00:00 15,7 C 88 % 1016,4 hPa 0,0 l/m N 0,0 km/h (0 Bft)
13.08.2009 01:00 15,5 C 89 % 1016,3 hPa 0,0 l/m W-NW 1,5 km/h (1 Bft)
13.08.2009 02:00 15,1 C 89 % 1015,8 hPa 0,0 l/m N 1,2 km/h (1 Bft)
13.08.2009 03:00 14,6 C 91 % 1015,6 hPa 0,0 l/m N 0,1 km/h (0 Bft)
13.08.2009 04:00 14,2 C 94 % 1015,3 hPa 0,0 l/m W 2,4 km/h (1 Bft)
13.08.2009 05:00 14,8 C 95 % 1015,1 hPa 0,0 l/m SO 5,1 km/h (1 Bft)
13.08.2009 06:00 14,9 C 93 % 1014,9 hPa 0,0 l/m SO 5,6 km/h (1 Bft)
13.08.2009 07:00 15,9 C 90 % 1014,9 hPa 0,0 l/m S-SW 13,9 km/h (3 Bft)
13.08.2009 08:00 17,5 C 84 % 1015,0 hPa 0,0 l/m SW 17,4 km/h (3 Bft)
13.08.2009 09:00 19,3 C 81 % 1015,1 hPa 0,0 l/m W-SW 16,9 km/h (3 Bft)
13.08.2009 10:00 21,0 C 72 % 1015,2 hPa 0,0 l/m SW 17,3 km/h (3 Bft)
13.08.2009 11:00 22,4 C 66 % 1014,8 hPa 0,0 l/m W-SW 18,8 km/h (3 Bft)
13.08.2009 12:00 23,6 C 62 % 1014,4 hPa 0,0 l/m W-SW 20,9 km/h (4 Bft)
13.08.2009 13:00 22,7 C 66 % 1014,0 hPa 0,0 l/m W-SW 13,8 km/h (3 Bft)
13.08.2009 14:00 21,5 C 69 % 1014,1 hPa 0,0 l/m W-SW 17,7 km/h (3 Bft)
13.08.2009 15:00 21,4 C 74 % 1013,9 hPa 0,0 l/m W 17,2 km/h (3 Bft)
13.08.2009 16:00 23,0 C 68 % 1013,2 hPa 1,6 l/m W-SW 15,2 km/h (3 Bft)
13.08.2009 17:00 19,4 C 88 % 1013,3 hPa 6,2 l/m W-SW 14,1 km/h (3 Bft)
13.08.2009 18:00 20,8 C 83 % 1012,9 hPa 0,0 l/m W-SW 5,6 km/h (1 Bft)
13.08.2009 19:00 20,2 C 85 % 1012,8 hPa 0,0 l/m O-NO 12,5 km/h (3 Bft)
13.08.2009 20:00 18,2 C 89 % 1013,0 hPa 0,0 l/m O-NO 10,3 km/h (2 Bft)
13.08.2009 21:00 16,6 C 91 % 1015,0 hPa 14,6 l/m N 14,9 km/h (3 Bft)
13.08.2009 22:00 15,4 C 95 % 1015,3 hPa 2,0 l/m NO 4,9 km/h (1 Bft)
13.08.2009 23:00 15,4 C 95 % 1015,2 hPa 0,4 l/m NO 1,9 km/h (1 Bft)
14.08.2009 00:00 15,0 C 95 % 1015,4 hPa 0,0 l/m N 0,4 km/h (0 Bft)
14.08.2009 01:00 15,0 C 95 % 1015,4 hPa 0,0 l/m N 0,7 km/h (0 Bft)
14.08.2009 02:00 15,0 C 96 % 1015,2 hPa 0,0 l/m N-NO 2,4 km/h (1 Bft)
14.08.2009 03:00 14,7 C 96 % 1015,0 hPa 0,0 l/m N-NW 5,3 km/h (1 Bft)
14.08.2009 04:00 14,3 C 96 % 1015,1 hPa 0,0 l/m N-NW 2,8 km/h (1 Bft)
14.08.2009 05:00 14,2 C 97 % 1014,9 hPa 0,0 l/m N 1,5 km/h (1 Bft)
14.08.2009 06:00 14,1 C 97 % 1015,0 hPa 0,0 l/m N-NW 2,9 km/h (1 Bft)
14.08.2009 07:00 14,3 C 98 % 1015,3 hPa 0,0 l/m N 1,6 km/h (1 Bft)
14.08.2009 08:00 14,5 C 98 % 1015,6 hPa 0,0 l/m NO 3,7 km/h (1 Bft)
14.08.2009 09:00 15,7 C 96 % 1016,0 hPa 0,0 l/m NO 3,7 km/h (1 Bft)
14.08.2009 10:00 18,2 C 87 % 1016,2 hPa 0,0 l/m NO 5,9 km/h (2 Bft)
14.08.2009 11:00 19,4 C 80 % 1016,2 hPa 0,0 l/m N-NO 9,4 km/h (2 Bft)
14.08.2009 12:00 20,7 C 72 % 1016,1 hPa 0,0 l/m NW 6,9 km/h (2 Bft)
14.08.2009 13:00 22,0 C 67 % 1015,9 hPa 0,0 l/m W-SW 8,3 km/h (2 Bft)
14.08.2009 14:00 21,6 C 69 % 1015,8 hPa 0,0 l/m N-NO 10,5 km/h (2 Bft)
14.08.2009 15:00 22,5 C 63 % 1015,8 hPa 0,0 l/m O-NO 8,2 km/h (2 Bft)
14.08.2009 16:00 23,5 C 61 % 1015,7 hPa 0,0 l/m O-SO 9,8 km/h (2 Bft)
14.08.2009 17:00 22,9 C 61 % 1015,4 hPa 0,0 l/m N-NO 6,8 km/h (2 Bft)
14.08.2009 18:00 22,8 C 62 % 1015,5 hPa 0,0 l/m O-NO 6,0 km/h (2 Bft)
14.08.2009 19:00 21,9 C 68 % 1015,4 hPa 0,0 l/m N-NO 5,2 km/h (1 Bft)
14.08.2009 20:00 20,0 C 80 % 1015,5 hPa 0,0 l/m N-NO 4,4 km/h (1 Bft)
14.08.2009 21:00 18,4 C 84 % 1016,2 hPa 0,0 l/m N-NO 2,4 km/h (1 Bft)
14.08.2009 22:00 18,1 C 86 % 1016,7 hPa 0,0 l/m N-NO 3,2 km/h (1 Bft)
14.08.2009 23:00 17,1 C 87 % 1016,8 hPa 0,0 l/m N-NW 3,5 km/h (1 Bft)
15.08.2009 00:00 16,1 C 90 % 1016,8 hPa 0,0 l/m N 1,3 km/h (1 Bft)
15.08.2009 01:00 15,6 C 92 % 1016,9 hPa 0,0 l/m N-NW 8,3 km/h (2 Bft)
15.08.2009 02:00 15,4 C 90 % 1016,4 hPa 0,0 l/m NW 1,7 km/h (1 Bft)
15.08.2009 03:00 14,7 C 91 % 1016,3 hPa 0,0 l/m N 0,4 km/h (0 Bft)
15.08.2009 04:00 14,1 C 93 % 1016,4 hPa 0,0 l/m N 1,5 km/h (1 Bft)
15.08.2009 05:00 13,7 C 93 % 1016,4 hPa 0,0 l/m N 0,0 km/h (0 Bft)
15.08.2009 06:00 13,2 C 94 % 1016,6 hPa 0,0 l/m N 0,0 km/h (0 Bft)
15.08.2009 07:00 13,7 C 95 % 1016,9 hPa 0,0 l/m N 0,0 km/h (0 Bft)
15.08.2009 08:00 16,3 C 89 % 1017,0 hPa 0,0 l/m N 0,0 km/h (0 Bft)
15.08.2009 09:00 19,0 C 84 % 1017,0 hPa 0,0 l/m N 0,0 km/h (0 Bft)
15.08.2009 10:00 21,6 C 78 % 1016,8 hPa 0,0 l/m SO 3,7 km/h (1 Bft)
15.08.2009 11:00 23,3 C 70 % 1016,5 hPa 0,0 l/m SW 7,5 km/h (2 Bft)
15.08.2009 12:00 24,8 C 65 % 1016,4 hPa 0,0 l/m W 11,4 km/h (2 Bft)
15.08.2009 13:00 26,3 C 56 % 1016,1 hPa 0,0 l/m W 14,4 km/h (3 Bft)
15.08.2009 14:00 26,9 C 52 % 1015,7 hPa 0,0 l/m SW 14,0 km/h (3 Bft)
15.08.2009 15:00 27,5 C 46 % 1015,7 hPa 0,0 l/m W-SW 16,4 km/h (3 Bft)
15.08.2009 16:00 27,6 C 45 % 1015,3 hPa 0,0 l/m W-SW 15,4 km/h (3 Bft)
15.08.2009 17:00 27,4 C 46 % 1015,0 hPa 0,0 l/m SW 14,6 km/h (3 Bft)
15.08.2009 18:00 26,7 C 47 % 1014,9 hPa 0,0 l/m W-SW 12,2 km/h (2 Bft)
15.08.2009 19:00 24,6 C 57 % 1014,7 hPa 0,0 l/m W-SW 2,4 km/h (1 Bft)
15.08.2009 20:00 21,6 C 68 % 1014,8 hPa 0,0 l/m N 0,0 km/h (0 Bft)
15.08.2009 21:00 19,5 C 79 % 1015,4 hPa 0,0 l/m N 0,0 km/h (0 Bft)
15.08.2009 22:00 18,3 C 85 % 1015,8 hPa 0,0 l/m N 0,0 km/h (0 Bft)
15.08.2009 23:00 17,5 C 87 % 1016,0 hPa 0,0 l/m N 0,0 km/h (0 Bft)
16.08.2009 00:00 17,0 C 88 % 1015,9 hPa 0,0 l/m N 0,0 km/h (0 Bft)
16.08.2009 01:00 16,4 C 91 % 1016,1 hPa 0,0 l/m N 0,0 km/h (0 Bft)
16.08.2009 02:00 16,0 C 92 % 1016,1 hPa 0,0 l/m N 0,0 km/h (0 Bft)
16.08.2009 03:00 15,4 C 93 % 1016,0 hPa 0,0 l/m N 0,0 km/h (0 Bft)
16.08.2009 04:00 15,0 C 94 % 1015,8 hPa 0,0 l/m N 0,0 km/h (0 Bft)
16.08.2009 05:00 14,5 C 94 % 1015,8 hPa 0,0 l/m N 0,0 km/h (0 Bft)
16.08.2009 06:00 14,0 C 95 % 1015,9 hPa 0,0 l/m N 0,0 km/h (0 Bft)
16.08.2009 07:00 14,6 C 96 % 1016,4 hPa 0,0 l/m N 0,0 km/h (0 Bft)
16.08.2009 08:00 17,8 C 89 % 1016,4 hPa 0,0 l/m N 0,0 km/h (0 Bft)
16.08.2009 09:00 21,7 C 81 % 1016,3 hPa 0,0 l/m S 7,9 km/h (2 Bft)
16.08.2009 10:00 24,0 C 72 % 1016,2 hPa 0,0 l/m S-SO 6,1 km/h (2 Bft)
16.08.2009 11:00 25,9 C 66 % 1016,0 hPa 0,0 l/m W-SW 10,2 km/h (2 Bft)
16.08.2009 12:00 27,4 C 54 % 1015,7 hPa 0,0 l/m SW 12,2 km/h (2 Bft)
16.08.2009 13:00 28,2 C 48 % 1015,4 hPa 0,0 l/m W-SW 14,1 km/h (3 Bft)
16.08.2009 14:00 28,7 C 45 % 1015,0 hPa 0,0 l/m W-NW 11,1 km/h (2 Bft)
16.08.2009 15:00 29,1 C 40 % 1014,8 hPa 0,0 l/m W 9,5 km/h (2 Bft)
16.08.2009 16:00 28,8 C 40 % 1014,6 hPa 0,0 l/m W-SW 6,8 km/h (2 Bft)
16.08.2009 17:00 27,9 C 47 % 1014,4 hPa 0,0 l/m W-SW 4,8 km/h (1 Bft)
16.08.2009 18:00 27,0 C 53 % 1013,9 hPa 0,0 l/m SW 3,5 km/h (1 Bft)
16.08.2009 19:00 25,5 C 63 % 1013,6 hPa 0,0 l/m N 0,0 km/h (0 Bft)
16.08.2009 20:00 22,8 C 74 % 1013,8 hPa 0,0 l/m N 0,0 km/h (0 Bft)
16.08.2009 21:00 20,6 C 80 % 1014,2 hPa 0,0 l/m N 0,0 km/h (0 Bft)
16.08.2009 22:00 19,4 C 83 % 1014,4 hPa 0,0 l/m N 0,0 km/h (0 Bft)
16.08.2009 23:00 18,7 C 85 % 1014,5 hPa 0,0 l/m N 0,4 km/h (0 Bft)
Min-Datum _ 15.08.09 16.08.09 13.08.09 - - 10.08.09
_ Min-Zeit 06:45 15:40 19:45 - - 00:20
Minimum _ 13,1 C 36 % 1012,5 hPa - - 0,0 km/h (0 Bft)
Max-Datum _ 16.08.09 11.08.09 12.08.09 13.08.09 - 13.08.09
_ Max-Zeit 15:30 05:25 08:00 21:20 - 21:10
Maximum _ 29,3 C 98 % 1019,6 hPa 14,6 l/m - 35,4 km/h
N (5 Bft)
Durchschnitt _ 19,3 C 79 % 1015,9 hPa #28,2 l/m W-SW 7,1 km/h (2 Bft)